Time;durP1;ratioP1;P1;durP2;ratioP2;P2;SDS_P1;SDS_P2;PMS_P1;PMS_P2;Temp;Humidity;BMP_temperature;BMP_pressure;BME280_temperature;BME280_humidity;BME280_pressure;Samples;Min_cycle;Max_cycle;Signal;HPM_P1;HPM_P2
2023/08/28 00:01:03;;;;;;;;;;;28.90;99.90;;;;;;5115377;28;19907;-70
2023/08/28 00:03:29;;;;;;;;;;;28.90;99.90;;;;;;5115261;28;20279;-70
2023/08/28 00:05:55;;;;;;;;;;;28.70;99.90;;;;;;5115196;28;19955;-70
2023/08/28 00:08:20;;;;;;;;;;;28.70;99.90;;;;;;5096472;28;20351;-70
2023/08/28 00:10:46;;;;;;;;;;;28.60;99.90;;;;;;5114892;28;19939;-70
2023/08/28 00:13:13;;;;;;;;;;;28.70;99.90;;;;;;5114341;28;19912;-70
2023/08/28 00:15:39;;;;;;;;;;;28.60;99.90;;;;;;5114637;28;20374;-70
2023/08/28 00:18:05;;;;;;;;;;;28.70;99.90;;;;;;5115186;28;20351;-70
2023/08/28 00:20:30;;;;;;;;;;;28.70;99.90;;;;;;5114621;28;19912;-70
2023/08/28 00:22:56;;;;;;;;;;;28.60;99.90;;;;;;5114736;28;19915;-70
2023/08/28 00:25:22;;;;;;;;;;;28.50;99.90;;;;;;5114516;28;19999;-70
2023/08/28 00:27:48;;;;;;;;;;;28.50;99.90;;;;;;5114566;28;20198;-69
2023/08/28 00:30:13;;;;;;;;;;;28.40;99.90;;;;;;5114341;28;19914;-69
2023/08/28 00:32:39;;;;;;;;;;;28.40;99.90;;;;;;5114438;28;19908;-70
2023/08/28 00:35:05;;;;;;;;;;;28.40;99.90;;;;;;5114526;28;19984;-70
2023/08/28 00:37:31;;;;;;;;;;;28.40;99.90;;;;;;5114643;28;20060;-70
2023/08/28 00:39:57;;;;;;;;;;;28.20;99.90;;;;;;5114212;28;19915;-71
2023/08/28 00:42:23;;;;;;;;;;;28.20;99.90;;;;;;5114135;28;19908;-70
2023/08/28 00:44:49;;;;;;;;;;;28.20;99.90;;;;;;5114310;28;20003;-70
2023/08/28 00:47:15;;;;;;;;;;;28.20;99.90;;;;;;5114373;28;19915;-70
2023/08/28 00:49:43;;;;;;;;;;;28.20;99.90;;;;;;5114022;28;19908;-69
2023/08/28 00:52:09;;;;;;;;;;;28.10;99.90;;;;;;5113814;28;19911;-70
2023/08/28 00:54:35;;;;;;;;;;;28.10;99.90;;;;;;5113936;28;19935;-69
2023/08/28 00:57:01;;;;;;;;;;;28.10;99.90;;;;;;5114436;28;19919;-70
2023/08/28 00:59:28;;;;;;;;;;;28.00;99.90;;;;;;5114353;28;19908;-70
2023/08/28 01:01:54;;;;;;;;;;;28.10;99.90;;;;;;5113921;28;20386;-70
2023/08/28 01:04:20;;;;;;;;;;;28.10;99.90;;;;;;5114253;28;19924;-70
2023/08/28 01:06:51;;;;;;;;;;;28.00;99.90;;;;;;5113887;28;20014;-70
2023/08/28 01:09:25;;;;;;;;;;;28.00;99.90;;;;;;5114389;28;20328;-70
2023/08/28 01:12:04;;;;;;;;;;;27.90;99.90;;;;;;5113867;28;19911;-70
2023/08/28 01:14:31;;;;;;;;;;;27.90;99.90;;;;;;5114096;28;19908;-70
2023/08/28 01:17:07;;;;;;;;;;;27.90;99.90;;;;;;5113785;28;19915;-70
2023/08/28 01:19:36;;;;;;;;;;;27.90;99.90;;;;;;5113959;28;20374;-70
2023/08/28 01:22:08;;;;;;;;;;;28.00;99.90;;;;;;5113940;28;19907;-70
2023/08/28 01:24:34;;;;;;;;;;;27.90;99.90;;;;;;5115308;28;20386;-70
2023/08/28 01:27:00;;;;;;;;;;;27.90;99.90;;;;;;5118321;28;19987;-70
2023/08/28 01:29:27;;;;;;;;;;;27.90;99.90;;;;;;5118263;28;20002;-70
2023/08/28 01:31:52;;;;;;;;;;;27.90;99.90;;;;;;5117966;28;19908;-70
2023/08/28 01:34:18;;;;;;;;;;;27.90;99.90;;;;;;5118186;28;19914;-70
2023/08/28 01:36:50;;;;;;;;;;;27.90;99.90;;;;;;5099327;28;19943;-69
2023/08/28 01:39:21;;;;;;;;;;;27.90;99.90;;;;;;5099522;28;19911;-70
2023/08/28 01:41:47;;;;;;;;;;;27.90;99.90;;;;;;5118331;28;20006;-70
2023/08/28 01:44:13;;;;;;;;;;;27.90;99.90;;;;;;5117482;28;20251;-70
2023/08/28 01:46:40;;;;;;;;;;;28.00;99.90;;;;;;5117607;28;19915;-70
2023/08/28 01:49:06;;;;;;;;;;;28.00;99.90;;;;;;5117832;28;19955;-70
2023/08/28 01:51:32;;;;;;;;;;;28.00;99.90;;;;;;5117455;28;19947;-70
2023/08/28 01:53:58;;;;;;;;;;;28.00;99.90;;;;;;5117458;28;19912;-71
2023/08/28 01:56:24;;;;;;;;;;;28.00;99.90;;;;;;5117736;28;19915;-70
2023/08/28 01:58:51;;;;;;;;;;;28.00;99.90;;;;;;5117379;28;19907;-70
2023/08/28 02:01:17;;;;;;;;;;;27.90;99.90;;;;;;5117214;28;20003;-70
2023/08/28 02:03:43;;;;;;;;;;;27.90;99.90;;;;;;5117253;28;20019;-69
2023/08/28 02:06:09;;;;;;;;;;;27.80;99.90;;;;;;5117296;28;19915;-70
2023/08/28 02:08:36;;;;;;;;;;;27.80;99.90;;;;;;5117246;28;19908;-70
2023/08/28 02:11:02;;;;;;;;;;;27.60;99.90;;;;;;5117163;28;19908;-70
2023/08/28 02:13:28;;;;;;;;;;;27.50;99.90;;;;;;5117444;28;19908;-69
2023/08/28 02:15:54;;;;;;;;;;;27.50;99.90;;;;;;5117005;28;19907;-70
2023/08/28 02:18:19;;;;;;;;;;;27.60;99.90;;;;;;5117556;28;19914;-70
2023/08/28 02:20:46;;;;;;;;;;;27.50;99.90;;;;;;5117268;28;20045;-70
2023/08/28 02:23:11;;;;;;;;;;;27.50;99.90;;;;;;5116922;28;20027;-71
2023/08/28 02:25:44;;;;;;;;;;;27.40;99.90;;;;;;5117187;28;19916;-70
2023/08/28 02:28:10;;;;;;;;;;;27.30;99.90;;;;;;5098567;28;19908;-70
2023/08/28 02:30:36;;;;;;;;;;;27.20;99.90;;;;;;5116808;28;20007;-70
2023/08/28 02:33:02;;;;;;;;;;;27.10;99.90;;;;;;5116903;28;20281;-70
2023/08/28 02:35:28;;;;;;;;;;;26.80;99.90;;;;;;5116451;28;19922;-70
2023/08/28 02:37:53;;;;;;;;;;;26.80;99.90;;;;;;5116758;28;20275;-70
2023/08/28 02:40:19;;;;;;;;;;;26.80;99.90;;;;;;5116658;28;19960;-70
2023/08/28 02:42:45;;;;;;;;;;;26.90;99.90;;;;;;5117042;28;20257;-70
2023/08/28 02:45:11;;;;;;;;;;;27.00;99.90;;;;;;5116623;28;19912;-70
2023/08/28 02:47:37;;;;;;;;;;;27.10;99.90;;;;;;5117032;28;19908;-70
2023/08/28 02:50:04;;;;;;;;;;;27.10;99.90;;;;;;5116463;28;19994;-70
2023/08/28 02:52:30;;;;;;;;;;;27.20;99.90;;;;;;5116217;28;19908;-70
2023/08/28 02:54:55;;;;;;;;;;;27.20;99.90;;;;;;5116314;28;20003;-70
2023/08/28 02:57:21;;;;;;;;;;;27.30;99.90;;;;;;5116833;28;19963;-70
2023/08/28 02:59:47;;;;;;;;;;;27.30;99.90;;;;;;5116592;28;19908;-70
2023/08/28 03:02:13;;;;;;;;;;;27.30;99.90;;;;;;5116640;28;19908;-71
2023/08/28 03:04:42;;;;;;;;;;;27.30;99.90;;;;;;5116369;28;19947;-70
2023/08/28 03:07:08;;;;;;;;;;;27.30;99.90;;;;;;5116665;28;20356;-70
2023/08/28 03:09:33;;;;;;;;;;;27.20;99.90;;;;;;5116153;28;19915;-70
2023/08/28 03:12:00;;;;;;;;;;;27.10;99.90;;;;;;5116581;28;19907;-70
2023/08/28 03:14:26;;;;;;;;;;;27.10;99.90;;;;;;5116121;28;19914;-70
2023/08/28 03:16:52;;;;;;;;;;;27.10;99.90;;;;;;5116530;28;20274;-69
2023/08/28 03:19:18;;;;;;;;;;;27.00;99.90;;;;;;5116246;28;20320;-70
2023/08/28 03:21:44;;;;;;;;;;;26.90;99.90;;;;;;5097529;28;19908;-70
2023/08/28 03:24:10;;;;;;;;;;;26.90;99.90;;;;;;5115643;28;20023;-70
2023/08/28 03:26:36;;;;;;;;;;;26.80;99.90;;;;;;5097471;28;19908;-70
2023/08/28 03:29:01;;;;;;;;;;;26.90;99.90;;;;;;5116319;28;19918;-69
2023/08/28 03:31:27;;;;;;;;;;;26.90;99.90;;;;;;5115508;28;19908;-69
2023/08/28 03:33:53;;;;;;;;;;;26.80;99.90;;;;;;5115621;28;19977;-70
2023/08/28 03:36:20;;;;;;;;;;;26.80;99.90;;;;;;5115460;28;20003;-70
2023/08/28 03:38:45;;;;;;;;;;;26.80;99.90;;;;;;5116010;28;19908;-70
2023/08/28 03:41:11;;;;;;;;;;;26.70;99.90;;;;;;5115378;28;20287;-70
2023/08/28 03:43:37;;;;;;;;;;;26.70;99.90;;;;;;5096968;28;19916;-70
2023/08/28 03:46:03;;;;;;;;;;;26.70;99.90;;;;;;5115676;28;19915;-70
2023/08/28 03:48:29;;;;;;;;;;;26.70;99.90;;;;;;5096565;28;19943;-70
2023/08/28 03:50:55;;;;;;;;;;;26.60;99.90;;;;;;5115276;28;19984;-69
2023/08/28 03:53:20;;;;;;;;;;;26.70;99.90;;;;;;5115335;28;19969;-70
2023/08/28 03:55:46;;;;;;;;;;;26.70;99.90;;;;;;5115452;28;19950;-70
2023/08/28 03:58:12;;;;;;;;;;;26.70;99.90;;;;;;5115866;28;19998;-70
2023/08/28 04:00:39;;;;;;;;;;;26.70;99.90;;;;;;5096632;28;19914;-70
2023/08/28 04:03:05;;;;;;;;;;;26.70;99.90;;;;;;5114951;28;19913;-70
2023/08/28 04:05:35;;;;;;;;;;;26.70;99.90;;;;;;5114956;28;19911;-69
2023/08/28 04:08:01;;;;;;;;;;;26.80;99.90;;;;;;5114930;28;19943;-70
2023/08/28 04:10:27;;;;;;;;;;;26.90;99.90;;;;;;5115453;28;20293;-70
2023/08/28 04:12:53;;;;;;;;;;;26.90;99.90;;;;;;5115087;28;19952;-70
2023/08/28 04:15:19;;;;;;;;;;;26.90;99.90;;;;;;5114923;28;19947;-70
2023/08/28 04:17:46;;;;;;;;;;;26.90;99.90;;;;;;5115335;28;19908;-71
2023/08/28 04:20:13;;;;;;;;;;;26.90;99.90;;;;;;5114721;28;19918;-70
2023/08/28 04:22:41;;;;;;;;;;;26.90;99.90;;;;;;5114472;28;19915;-70
2023/08/28 04:25:07;;;;;;;;;;;26.90;99.90;;;;;;5096170;28;19914;-69
2023/08/28 04:27:33;;;;;;;;;;;26.90;99.90;;;;;;5115080;28;19907;-69
2023/08/28 04:29:58;;;;;;;;;;;26.90;99.90;;;;;;5114411;28;19908;-70
2023/08/28 04:32:24;;;;;;;;;;;26.90;99.90;;;;;;5114280;28;19908;-70
2023/08/28 04:34:50;;;;;;;;;;;26.90;99.90;;;;;;5114216;28;20398;-69
2023/08/28 04:37:16;;;;;;;;;;;26.90;99.90;;;;;;5114655;28;19916;-70
2023/08/28 04:39:43;;;;;;;;;;;26.90;99.90;;;;;;5114590;28;19912;-70
2023/08/28 04:42:14;;;;;;;;;;;26.80;99.90;;;;;;5114190;28;19912;-71
2023/08/28 04:44:40;;;;;;;;;;;26.80;99.90;;;;;;5095769;28;19968;-70
2023/08/28 04:47:05;;;;;;;;;;;26.80;99.90;;;;;;5114178;28;20002;-70
2023/08/28 04:49:31;;;;;;;;;;;26.80;99.90;;;;;;5114474;28;19912;-71
2023/08/28 04:51:57;;;;;;;;;;;26.90;99.90;;;;;;5095357;28;19908;-70
2023/08/28 04:54:23;;;;;;;;;;;27.00;99.90;;;;;;5114231;28;19915;-70
2023/08/28 04:56:49;;;;;;;;;;;27.00;99.90;;;;;;5114000;28;20008;-70
2023/08/28 04:59:14;;;;;;;;;;;26.90;99.90;;;;;;5114363;28;19907;-70
2023/08/28 05:01:40;;;;;;;;;;;27.00;99.90;;;;;;5113740;28;20389;-70
2023/08/28 05:04:07;;;;;;;;;;;27.10;99.90;;;;;;5095422;28;19944;-70
2023/08/28 05:06:33;;;;;;;;;;;27.20;99.90;;;;;;5113711;28;20361;-70
2023/08/28 05:08:59;;;;;;;;;;;27.10;99.90;;;;;;5113820;28;19919;-70
2023/08/28 05:11:25;;;;;;;;;;;27.10;99.90;;;;;;5113996;28;19988;-70
2023/08/28 05:13:51;;;;;;;;;;;27.20;99.90;;;;;;5114032;28;20027;-70
2023/08/28 05:16:17;;;;;;;;;;;27.20;99.90;;;;;;5113540;28;19914;-70
2023/08/28 05:18:43;;;;;;;;;;;27.20;99.90;;;;;;5113659;28;20313;-70
2023/08/28 05:21:08;;;;;;;;;;;27.20;99.90;;;;;;5113699;28;19907;-70
2023/08/28 05:23:34;;;;;;;;;;;27.30;99.90;;;;;;5113430;28;19923;-70
2023/08/28 05:26:00;;;;;;;;;;;27.60;99.90;;;;;;5113442;28;19907;-70
2023/08/28 05:28:26;;;;;;;;;;;28.10;99.90;;;;;;5095033;28;20147;-72
2023/08/28 05:30:52;;;;;;;;;;;28.80;99.90;;;;;;5094734;28;20064;-70
2023/08/28 05:33:18;;;;;;;;;;;29.30;99.90;;;;;;5113670;28;19992;-72
2023/08/28 05:35:44;;;;;;;;;;;29.60;99.90;;;;;;5112764;28;19916;-70
2023/08/28 05:38:11;;;;;;;;;;;30.00;99.90;;;;;;5094749;28;20379;-70
2023/08/28 05:40:37;;;;;;;;;;;30.60;99.90;;;;;;5113312;28;19915;-69
2023/08/28 05:43:03;;;;;;;;;;;30.30;99.90;;;;;;5113665;28;19922;-70
2023/08/28 05:45:29;;;;;;;;;;;30.20;99.90;;;;;;5113232;28;19908;-70
2023/08/28 05:47:55;;;;;;;;;;;30.50;99.90;;;;;;5113322;28;19915;-70
2023/08/28 05:50:21;;;;;;;;;;;31.30;99.90;;;;;;5113173;28;19947;-70
2023/08/28 05:52:47;;;;;;;;;;;31.70;99.90;;;;;;5113010;28;20372;-70
2023/08/28 05:55:13;;;;;;;;;;;32.00;99.90;;;;;;5112979;28;19915;-70
2023/08/28 05:57:40;;;;;;;;;;;31.70;99.90;;;;;;5113089;28;19947;-70
2023/08/28 06:00:08;;;;;;;;;;;32.70;99.90;;;;;;5112737;28;19943;-70
2023/08/28 06:02:34;;;;;;;;;;;33.10;99.90;;;;;;5112995;28;19912;-70
2023/08/28 06:04:59;;;;;;;;;;;33.40;99.90;;;;;;5094535;28;19935;-70
2023/08/28 06:07:25;;;;;;;;;;;34.20;99.90;;;;;;5113376;28;19931;-70
2023/08/28 06:09:51;;;;;;;;;;;34.90;99.90;;;;;;5112851;28;19915;-72
2023/08/28 06:12:17;;;;;;;;;;;35.10;99.90;;;;;;5116413;28;19907;-71
2023/08/28 06:14:43;;;;;;;;;;;35.60;99.20;;;;;;5116467;28;19914;-71
2023/08/28 06:17:09;;;;;;;;;;;35.30;98.90;;;;;;5098079;28;19908;-70
2023/08/28 06:19:35;;;;;;;;;;;35.70;98.40;;;;;;5117299;28;20236;-70
2023/08/28 06:22:04;;;;;;;;;;;35.50;98.60;;;;;;5116529;28;19908;-70
2023/08/28 06:24:31;;;;;;;;;;;36.30;98.00;;;;;;5116647;28;19959;-72
2023/08/28 06:26:57;;;;;;;;;;;35.70;97.60;;;;;;5117303;28;19908;-70
2023/08/28 06:29:24;;;;;;;;;;;35.00;98.10;;;;;;5116697;28;19907;-72
2023/08/28 06:31:50;;;;;;;;;;;35.00;98.10;;;;;;5116327;28;20360;-71
2023/08/28 06:34:16;;;;;;;;;;;36.10;97.50;;;;;;5116434;28;20367;-71
2023/08/28 06:36:42;;;;;;;;;;;35.10;98.30;;;;;;5116336;28;20014;-71
2023/08/28 06:39:08;;;;;;;;;;;36.00;97.90;;;;;;5116618;28;19947;-71
2023/08/28 06:41:34;;;;;;;;;;;36.30;97.30;;;;;;5116630;28;20340;-71
2023/08/28 06:44:00;;;;;;;;;;;36.50;97.30;;;;;;5116428;28;19923;-71
2023/08/28 06:46:26;;;;;;;;;;;37.30;96.60;;;;;;5097627;28;19999;-70
2023/08/28 06:48:53;;;;;;;;;;;37.80;95.90;;;;;;5116265;28;20002;-70
2023/08/28 06:51:19;;;;;;;;;;;38.10;95.60;;;;;;5115831;28;19919;-71
2023/08/28 06:53:45;;;;;;;;;;;37.70;95.10;;;;;;5097194;28;20320;-70
2023/08/28 06:56:11;;;;;;;;;;;37.70;95.00;;;;;;5097553;28;19920;-71
2023/08/28 06:58:42;;;;;;;;;;;38.10;94.60;;;;;;5116148;28;19908;-71
2023/08/28 07:01:08;;;;;;;;;;;37.80;94.60;;;;;;5097287;28;19919;-71
2023/08/28 07:03:33;;;;;;;;;;;38.10;94.50;;;;;;5116322;28;19916;-71
2023/08/28 07:05:59;;;;;;;;;;;37.80;94.60;;;;;;5116046;28;19908;-72
2023/08/28 07:08:25;;;;;;;;;;;37.20;94.90;;;;;;5115810;28;19937;-71
2023/08/28 07:10:51;;;;;;;;;;;37.30;95.30;;;;;;5115699;28;19994;-71
2023/08/28 07:13:17;;;;;;;;;;;36.60;95.20;;;;;;5116106;28;20344;-71
2023/08/28 07:15:43;;;;;;;;;;;35.90;96.00;;;;;;5097078;28;19994;-70
2023/08/28 07:18:09;;;;;;;;;;;36.00;96.80;;;;;;5115921;28;19908;-70
2023/08/28 07:20:35;;;;;;;;;;;35.60;96.80;;;;;;5115403;28;19991;-70
2023/08/28 07:23:01;;;;;;;;;;;35.20;97.70;;;;;;5095745;28;19919;-71
2023/08/28 07:25:28;;;;;;;;;;;34.80;98.60;;;;;;5115356;28;19916;-71
2023/08/28 07:27:54;;;;;;;;;;;35.20;98.70;;;;;;5115315;28;20303;-71
2023/08/28 07:30:20;;;;;;;;;;;35.10;98.50;;;;;;5115372;28;19908;-71
2023/08/28 07:32:47;;;;;;;;;;;35.30;98.60;;;;;;5115374;28;19908;-71
2023/08/28 07:35:13;;;;;;;;;;;34.40;99.10;;;;;;5115523;28;19992;-70
2023/08/28 07:37:40;;;;;;;;;;;33.60;99.80;;;;;;5115211;28;19915;-70
2023/08/28 07:40:06;;;;;;;;;;;33.10;99.90;;;;;;5115960;28;20416;-71
2023/08/28 07:42:33;;;;;;;;;;;33.10;99.90;;;;;;5114893;28;20015;-71
2023/08/28 07:44:59;;;;;;;;;;;33.10;99.90;;;;;;5114823;28;19907;-71
2023/08/28 07:47:25;;;;;;;;;;;33.70;99.90;;;;;;5115252;28;20275;-73
2023/08/28 07:49:54;;;;;;;;;;;33.90;99.90;;;;;;5096774;28;21583;-70
2023/08/28 07:52:20;;;;;;;;;;;34.20;99.90;;;;;;5115199;28;19981;-71
2023/08/28 07:54:46;;;;;;;;;;;33.60;99.90;;;;;;5115306;28;19911;-72
2023/08/28 07:57:12;;;;;;;;;;;32.90;99.90;;;;;;5097149;28;19911;-70
2023/08/28 07:59:39;;;;;;;;;;;32.10;99.90;;;;;;5114783;28;19908;-70
2023/08/28 08:02:04;;;;;;;;;;;32.50;99.90;;;;;;5113998;28;19908;-70
2023/08/28 08:04:31;;;;;;;;;;;32.70;99.90;;;;;;5114427;28;19941;-71
2023/08/28 08:06:57;;;;;;;;;;;32.00;99.90;;;;;;5114184;28;20014;-70
2023/08/28 08:09:24;;;;;;;;;;;32.50;99.90;;;;;;5114303;28;19943;-70
2023/08/28 08:11:49;;;;;;;;;;;32.60;99.90;;;;;;5114348;28;19918;-70
2023/08/28 08:14:15;;;;;;;;;;;32.50;99.90;;;;;;5114342;28;20014;-70
2023/08/28 08:16:41;;;;;;;;;;;32.60;99.90;;;;;;5113967;28;19998;-70
2023/08/28 08:19:07;;;;;;;;;;;33.00;99.90;;;;;;5114089;28;19911;-72
2023/08/28 08:21:33;;;;;;;;;;;33.10;99.90;;;;;;5114335;28;19908;-71
2023/08/28 08:23:58;;;;;;;;;;;33.20;99.90;;;;;;5114092;28;19931;-71
2023/08/28 08:26:24;;;;;;;;;;;33.00;99.90;;;;;;5114160;28;19996;-70
2023/08/28 08:28:50;;;;;;;;;;;33.00;99.90;;;;;;5113949;28;19912;-71
2023/08/28 08:31:16;;;;;;;;;;;32.20;99.90;;;;;;5113792;28;19988;-71
2023/08/28 08:33:43;;;;;;;;;;;32.50;99.90;;;;;;5095373;28;19918;-73
2023/08/28 08:36:14;;;;;;;;;;;32.80;99.90;;;;;;5113584;28;20290;-73
2023/08/28 08:38:40;;;;;;;;;;;33.40;99.90;;;;;;5113579;28;20372;-71
2023/08/28 08:41:06;;;;;;;;;;;33.60;99.90;;;;;;5095183;28;19908;-71
2023/08/28 08:43:32;;;;;;;;;;;33.60;99.90;;;;;;5113517;28;20430;-70
2023/08/28 08:46:01;;;;;;;;;;;33.60;99.90;;;;;;5113502;28;20294;-71
2023/08/28 08:48:28;;;;;;;;;;;34.00;99.90;;;;;;5114263;28;19908;-71
2023/08/28 08:51:01;;;;;;;;;;;33.90;99.90;;;;;;5095412;28;19955;-70
2023/08/28 08:53:47;;;;;;;;;;;34.00;99.90;;;;;;5113770;28;19914;-71
2023/08/28 08:56:16;;;;;;;;;;;33.70;99.90;;;;;;5099075;28;19908;-71
2023/08/28 08:58:43;;;;;;;;;;;33.60;99.90;;;;;;5113520;28;19918;-71
2023/08/28 09:01:10;;;;;;;;;;;32.70;99.90;;;;;;5113419;28;19908;-71
2023/08/28 09:03:40;;;;;;;;;;;32.70;99.90;;;;;;5113763;28;19923;-71
2023/08/28 09:06:06;;;;;;;;;;;32.70;99.90;;;;;;5113326;28;19939;-71
2023/08/28 09:08:36;;;;;;;;;;;32.70;99.90;;;;;;5113514;28;20317;-70
2023/08/28 09:11:04;;;;;;;;;;;32.70;99.90;;;;;;5113547;28;19911;-72
2023/08/28 09:13:30;;;;;;;;;;;32.70;99.90;;;;;;5113342;28;19912;-70
2023/08/28 09:15:57;;;;;;;;;;;32.90;99.90;;;;;;5113297;28;19908;-70
2023/08/28 09:18:25;;;;;;;;;;;33.00;99.90;;;;;;5113660;28;20294;-70
2023/08/28 09:21:07;;;;;;;;;;;32.90;99.90;;;;;;5113135;28;20363;-70
2023/08/28 09:23:34;;;;;;;;;;;33.20;99.90;;;;;;5113240;28;19916;-71
2023/08/28 09:26:00;;;;;;;;;;;33.10;99.90;;;;;;5113811;28;20262;-70
2023/08/28 09:28:26;;;;;;;;;;;32.60;99.90;;;;;;5113065;28;19908;-70
2023/08/28 09:30:52;;;;;;;;;;;32.80;99.90;;;;;;5113191;28;19919;-69
2023/08/28 09:33:18;;;;;;;;;;;33.00;99.90;;;;;;5094769;28;19912;-70
2023/08/28 09:35:48;;;;;;;;;;;32.90;99.90;;;;;;5112976;28;19923;-70
2023/08/28 09:38:14;;;;;;;;;;;32.30;99.90;;;;;;5113204;28;19912;-70
2023/08/28 09:40:41;;;;;;;;;;;32.30;99.90;;;;;;5094867;28;20359;-70
2023/08/28 09:43:14;;;;;;;;;;;32.60;99.90;;;;;;5113249;28;19916;-70
2023/08/28 09:45:41;;;;;;;;;;;32.70;99.90;;;;;;5114286;28;20380;-71
2023/08/28 09:48:08;;;;;;;;;;;32.50;99.90;;;;;;5117298;28;19915;-71
2023/08/28 09:50:34;;;;;;;;;;;32.50;99.90;;;;;;5117284;28;19912;-70
2023/08/28 09:53:29;;;;;;;;;;;32.50;99.90;;;;;;5098997;28;20252;-71
2023/08/28 09:55:55;;;;;;;;;;;32.10;99.90;;;;;;5107549;28;19915;-70
2023/08/28 09:58:23;;;;;;;;;;;32.30;99.90;;;;;;5098751;28;19907;-71
2023/08/28 10:00:50;;;;;;;;;;;31.90;99.90;;;;;;5098386;28;19990;-69
2023/08/28 10:03:16;;;;;;;;;;;32.00;99.90;;;;;;5117451;28;20272;-71
2023/08/28 10:05:45;;;;;;;;;;;31.80;99.90;;;;;;5116948;28;19950;-71
2023/08/28 10:08:12;;;;;;;;;;;31.70;99.90;;;;;;5117051;28;19911;-71
2023/08/28 10:10:39;;;;;;;;;;;31.60;99.90;;;;;;5116763;28;19912;-71
2023/08/28 10:13:06;;;;;;;;;;;31.60;99.90;;;;;;5098346;28;19908;-71
2023/08/28 10:15:33;;;;;;;;;;;31.30;99.90;;;;;;5116576;28;19908;-72
2023/08/28 10:18:10;;;;;;;;;;;30.80;99.90;;;;;;5116710;28;19908;-71
2023/08/28 10:20:36;;;;;;;;;;;30.70;99.90;;;;;;5117210;28;19914;-71
2023/08/28 10:23:03;;;;;;;;;;;30.60;99.90;;;;;;5097971;28;20299;-71
2023/08/28 10:25:29;;;;;;;;;;;30.60;99.90;;;;;;5097962;28;19916;-71
2023/08/28 10:27:57;;;;;;;;;;;30.80;99.90;;;;;;5116906;28;19908;-71
2023/08/28 10:30:25;;;;;;;;;;;30.30;99.90;;;;;;5115924;28;20383;-71
2023/08/28 10:32:51;;;;;;;;;;;30.20;99.90;;;;;;5115884;28;20279;-71
2023/08/28 10:35:17;;;;;;;;;;;29.90;99.90;;;;;;5115965;28;19919;-71
2023/08/28 10:37:44;;;;;;;;;;;29.90;99.90;;;;;;5116422;28;19951;-71
2023/08/28 10:40:11;;;;;;;;;;;29.90;99.90;;;;;;5116472;28;19915;-71
2023/08/28 10:42:37;;;;;;;;;;;29.90;99.90;;;;;;5097645;28;19965;-71
2023/08/28 10:45:03;;;;;;;;;;;29.90;99.90;;;;;;5097624;28;20324;-71
2023/08/28 10:47:29;;;;;;;;;;;29.90;99.90;;;;;;5097711;28;19907;-72
2023/08/28 10:49:57;;;;;;;;;;;30.00;99.90;;;;;;5116357;28;19915;-71
2023/08/28 10:52:23;;;;;;;;;;;30.10;99.90;;;;;;5116090;28;19947;-72
2023/08/28 10:54:50;;;;;;;;;;;30.00;99.90;;;;;;5115937;28;19966;-71
2023/08/28 10:57:44;;;;;;;;;;;29.90;99.90;;;;;;5116122;28;19908;-71
2023/08/28 11:00:18;;;;;;;;;;;29.60;99.90;;;;;;5112518;28;20006;-72
2023/08/28 11:03:06;;;;;;;;;;;29.50;99.90;;;;;;5097272;28;19908;-71
2023/08/28 11:05:32;;;;;;;;;;;29.60;99.90;;;;;;5115531;28;19911;-71
2023/08/28 11:08:04;;;;;;;;;;;29.80;99.90;;;;;;5115614;28;19908;-73
2023/08/28 11:10:30;;;;;;;;;;;29.80;99.90;;;;;;5097307;28;19937;-71
2023/08/28 11:13:00;;;;;;;;;;;29.80;99.90;;;;;;5097128;28;19915;-71
2023/08/28 11:15:30;;;;;;;;;;;30.10;99.90;;;;;;5115438;28;20010;-72
2023/08/28 11:18:31;;;;;;;;;;;30.00;99.90;;;;;;5115851;28;19908;-71
2023/08/28 11:21:01;;;;;;;;;;;30.30;99.90;;;;;;5032789;28;19909;-72
2023/08/28 11:23:35;;;;;;;;;;;30.10;99.90;;;;;;5032582;28;19972;-71
2023/08/28 11:26:06;;;;;;;;;;;30.20;99.90;;;;;;5033155;28;20027;-71
2023/08/28 11:28:41;;;;;;;;;;;30.50;99.90;;;;;;5032843;28;19945;-71
2023/08/28 11:31:07;;;;;;;;;;;30.70;99.90;;;;;;5032588;28;19916;-72
2023/08/28 11:33:37;;;;;;;;;;;30.70;99.90;;;;;;5032704;28;19913;-71
2023/08/28 11:36:03;;;;;;;;;;;30.90;99.90;;;;;;5032263;28;19932;-71
2023/08/28 11:38:29;;;;;;;;;;;30.80;99.90;;;;;;5015758;28;19909;-70
2023/08/28 11:40:57;;;;;;;;;;;30.40;99.90;;;;;;5032962;28;19916;-70
2023/08/28 11:43:24;;;;;;;;;;;30.60;99.90;;;;;;5032492;28;19917;-70
2023/08/28 11:45:57;;;;;;;;;;;30.80;99.90;;;;;;5032650;28;19913;-70
2023/08/28 11:48:23;;;;;;;;;;;30.80;99.90;;;;;;5032632;28;19995;-71
2023/08/28 11:50:48;;;;;;;;;;;30.70;99.90;;;;;;5032324;28;20004;-71
2023/08/28 11:53:14;;;;;;;;;;;30.90;99.90;;;;;;5015385;28;20014;-71
2023/08/28 11:55:40;;;;;;;;;;;31.00;99.90;;;;;;5099916;28;19908;-71
2023/08/28 11:58:07;;;;;;;;;;;30.50;99.90;;;;;;5114991;28;19914;-71
2023/08/28 12:00:33;;;;;;;;;;;30.50;99.90;;;;;;5114573;28;19938;-71
2023/08/28 12:02:59;;;;;;;;;;;30.50;99.90;;;;;;5115225;28;20031;-72
2023/08/28 12:05:25;;;;;;;;;;;30.60;99.90;;;;;;5114794;28;19978;-71
2023/08/28 12:07:51;;;;;;;;;;;30.80;99.90;;;;;;5095694;28;19907;-71
2023/08/28 12:10:17;;;;;;;;;;;31.00;99.90;;;;;;5114796;28;19915;-71
2023/08/28 12:12:43;;;;;;;;;;;30.90;99.90;;;;;;5114874;28;19994;-71
2023/08/28 12:15:10;;;;;;;;;;;31.10;99.90;;;;;;5096013;28;19908;-71
2023/08/28 12:17:38;;;;;;;;;;;31.00;99.90;;;;;;5096115;28;19969;-71
2023/08/28 12:20:06;;;;;;;;;;;30.20;99.90;;;;;;5114565;28;20368;-70
2023/08/28 12:22:34;;;;;;;;;;;29.80;99.90;;;;;;5114416;28;19908;-71
2023/08/28 12:25:00;;;;;;;;;;;30.10;99.90;;;;;;5114523;28;20261;-71
2023/08/28 12:27:26;;;;;;;;;;;30.00;99.90;;;;;;5114628;28;19915;-69
2023/08/28 12:29:54;;;;;;;;;;;29.90;99.90;;;;;;5114109;28;19908;-70
2023/08/28 12:32:20;;;;;;;;;;;30.00;99.90;;;;;;5114061;28;19908;-70
2023/08/28 12:34:46;;;;;;;;;;;30.00;99.90;;;;;;5095569;28;20079;-70
2023/08/28 12:37:13;;;;;;;;;;;30.10;99.90;;;;;;5114507;28;19916;-71
2023/08/28 12:39:46;;;;;;;;;;;29.90;99.90;;;;;;5114127;28;20041;-71
2023/08/28 12:42:15;;;;;;;;;;;29.60;99.90;;;;;;5114223;28;19926;-71
2023/08/28 12:44:44;;;;;;;;;;;29.70;99.90;;;;;;5114669;28;20006;-72
2023/08/28 12:47:11;;;;;;;;;;;29.70;99.90;;;;;;5114072;28;19915;-71
2023/08/28 12:49:40;;;;;;;;;;;29.50;99.90;;;;;;5114836;28;20272;-71
2023/08/28 12:52:10;;;;;;;;;;;29.40;99.90;;;;;;5095600;28;19943;-71
2023/08/28 12:54:38;;;;;;;;;;;29.80;99.90;;;;;;5114137;28;19953;-71
2023/08/28 12:57:04;;;;;;;;;;;29.70;99.90;;;;;;5114206;28;19954;-71
2023/08/28 12:59:31;;;;;;;;;;;29.50;99.90;;;;;;5114296;28;19907;-70
2023/08/28 13:01:57;;;;;;;;;;;29.90;99.90;;;;;;5095366;28;19960;-70
2023/08/28 13:04:24;;;;;;;;;;;30.20;99.90;;;;;;5114297;28;20022;-70
2023/08/28 13:06:50;;;;;;;;;;;30.20;99.90;;;;;;5113889;28;19908;-70
2023/08/28 13:09:16;;;;;;;;;;;30.50;99.90;;;;;;5095520;28;20315;-70
2023/08/28 13:11:42;;;;;;;;;;;30.70;99.90;;;;;;5113880;28;19933;-72
2023/08/28 13:14:08;;;;;;;;;;;30.50;99.90;;;;;;5113697;28;19908;-70
2023/08/28 13:16:34;;;;;;;;;;;30.70;99.90;;;;;;5113580;28;19922;-69
2023/08/28 13:19:01;;;;;;;;;;;30.80;99.90;;;;;;5113652;28;19972;-71
2023/08/28 13:21:27;;;;;;;;;;;30.60;99.90;;;;;;5094321;28;20267;-72
2023/08/28 13:23:56;;;;;;;;;;;31.00;99.90;;;;;;5113523;28;19920;-72
2023/08/28 13:26:22;;;;;;;;;;;31.10;99.90;;;;;;5113822;28;19908;-73
2023/08/28 13:28:49;;;;;;;;;;;30.90;99.90;;;;;;5113558;28;19908;-71
2023/08/28 13:31:16;;;;;;;;;;;31.20;99.90;;;;;;5113767;28;19998;-71
2023/08/28 13:33:42;;;;;;;;;;;31.00;99.90;;;;;;5113595;28;19968;-71
2023/08/28 13:36:08;;;;;;;;;;;31.00;99.90;;;;;;5113184;28;19926;-71
2023/08/28 13:38:34;;;;;;;;;;;31.00;99.90;;;;;;5113404;28;19908;-71
2023/08/28 13:41:00;;;;;;;;;;;30.70;99.90;;;;;;5113457;28;20032;-70
2023/08/28 13:43:26;;;;;;;;;;;31.00;99.90;;;;;;5113300;28;19912;-71
2023/08/28 13:45:52;;;;;;;;;;;31.00;99.90;;;;;;5113251;28;19908;-71
2023/08/28 13:48:18;;;;;;;;;;;31.40;99.90;;;;;;5113270;28;19933;-71
2023/08/28 13:50:44;;;;;;;;;;;31.10;99.90;;;;;;5113317;28;19951;-71
2023/08/28 13:53:10;;;;;;;;;;;31.00;99.90;;;;;;5113159;28;19914;-71
2023/08/28 13:55:39;;;;;;;;;;;31.30;99.90;;;;;;5113188;28;19908;-71
2023/08/28 13:58:05;;;;;;;;;;;31.10;99.90;;;;;;5113122;28;19908;-71
2023/08/28 14:00:31;;;;;;;;;;;31.10;99.90;;;;;;5113084;28;19911;-71
2023/08/28 14:02:56;;;;;;;;;;;30.90;99.90;;;;;;5113541;28;19955;-71
2023/08/28 14:05:22;;;;;;;;;;;31.00;99.90;;;;;;5113299;28;19908;-71
2023/08/28 14:07:48;;;;;;;;;;;31.10;99.90;;;;;;5113145;28;20006;-71
2023/08/28 14:10:14;;;;;;;;;;;31.20;99.90;;;;;;5113340;28;20360;-71
2023/08/28 14:12:40;;;;;;;;;;;31.40;99.80;;;;;;5113356;28;20435;-69
2023/08/28 14:15:07;;;;;;;;;;;31.20;98.60;;;;;;5113666;28;19908;-71